sensor_id;sensor_type;location;lat;lon;timestamp;P1;durP1;ratioP1;P2;durP2;ratioP2
48403;SDS011;34202;52.536;6.042;2023-06-04T00:03:31;3.00;;;1.70;;
48403;SDS011;34202;52.536;6.042;2023-06-04T00:08:32;2.70;;;1.30;;
48403;SDS011;34202;52.536;6.042;2023-06-04T00:13:32;4.30;;;1.50;;
48403;SDS011;34202;52.536;6.042;2023-06-04T00:18:33;3.70;;;1.60;;
48403;SDS011;34202;52.536;6.042;2023-06-04T00:23:33;3.30;;;1.80;;
48403;SDS011;34202;52.536;6.042;2023-06-04T00:28:34;4.00;;;1.70;;
48403;SDS011;34202;52.536;6.042;2023-06-04T00:33:34;2.70;;;1.60;;
48403;SDS011;34202;52.536;6.042;2023-06-04T00:38:35;2.10;;;1.80;;
48403;SDS011;34202;52.536;6.042;2023-06-04T00:43:35;2.50;;;1.80;;
48403;SDS011;34202;52.536;6.042;2023-06-04T00:48:36;2.40;;;1.60;;
48403;SDS011;34202;52.536;6.042;2023-06-04T00:53:36;3.60;;;2.00;;
48403;SDS011;34202;52.536;6.042;2023-06-04T00:58:37;2.00;;;1.40;;
48403;SDS011;34202;52.536;6.042;2023-06-04T01:03:39;2.10;;;1.80;;
48403;SDS011;34202;52.536;6.042;2023-06-04T01:08:46;5.20;;;2.00;;
48403;SDS011;34202;52.536;6.042;2023-06-04T01:13:49;3.00;;;1.90;;
48403;SDS011;34202;52.536;6.042;2023-06-04T01:18:49;3.30;;;1.90;;
48403;SDS011;34202;52.536;6.042;2023-06-04T01:23:51;2.60;;;1.70;;
48403;SDS011;34202;52.536;6.042;2023-06-04T01:28:58;5.50;;;1.70;;
48403;SDS011;34202;52.536;6.042;2023-06-04T01:34:01;3.60;;;2.00;;
48403;SDS011;34202;52.536;6.042;2023-06-04T01:39:02;3.70;;;2.20;;
48403;SDS011;34202;52.536;6.042;2023-06-04T01:44:02;7.00;;;2.40;;
48403;SDS011;34202;52.536;6.042;2023-06-04T01:49:02;5.80;;;2.70;;
48403;SDS011;34202;52.536;6.042;2023-06-04T01:54:04;3.30;;;2.20;;
48403;SDS011;34202;52.536;6.042;2023-06-04T01:59:04;4.30;;;2.90;;
48403;SDS011;34202;52.536;6.042;2023-06-04T02:04:04;4.20;;;2.40;;
48403;SDS011;34202;52.536;6.042;2023-06-04T02:09:05;4.20;;;2.40;;
48403;SDS011;34202;52.536;6.042;2023-06-04T02:14:05;3.20;;;2.20;;
48403;SDS011;34202;52.536;6.042;2023-06-04T02:19:05;4.60;;;2.60;;
48403;SDS011;34202;52.536;6.042;2023-06-04T02:24:06;5.20;;;2.40;;
48403;SDS011;34202;52.536;6.042;2023-06-04T02:29:06;3.90;;;2.60;;
48403;SDS011;34202;52.536;6.042;2023-06-04T02:34:06;3.20;;;2.10;;
48403;SDS011;34202;52.536;6.042;2023-06-04T02:39:07;4.50;;;2.60;;
48403;SDS011;34202;52.536;6.042;2023-06-04T02:44:07;5.80;;;2.70;;
48403;SDS011;34202;52.536;6.042;2023-06-04T02:49:08;6.40;;;3.80;;
48403;SDS011;34202;52.536;6.042;2023-06-04T02:54:09;8.00;;;3.40;;
48403;SDS011;34202;52.536;6.042;2023-06-04T02:59:10;6.30;;;4.30;;
48403;SDS011;34202;52.536;6.042;2023-06-04T03:04:10;12.40;;;3.30;;
48403;SDS011;34202;52.536;6.042;2023-06-04T03:09:15;5.40;;;2.70;;
48403;SDS011;34202;52.536;6.042;2023-06-04T03:14:15;6.20;;;3.50;;
48403;SDS011;34202;52.536;6.042;2023-06-04T03:19:16;4.60;;;3.00;;
48403;SDS011;34202;52.536;6.042;2023-06-04T03:24:16;7.50;;;3.40;;
48403;SDS011;34202;52.536;6.042;2023-06-04T03:29:17;9.10;;;3.60;;
48403;SDS011;34202;52.536;6.042;2023-06-04T03:34:17;7.30;;;3.50;;
48403;SDS011;34202;52.536;6.042;2023-06-04T03:39:18;8.10;;;3.50;;
48403;SDS011;34202;52.536;6.042;2023-06-04T03:44:18;8.30;;;3.70;;
48403;SDS011;34202;52.536;6.042;2023-06-04T03:49:19;11.60;;;3.50;;
48403;SDS011;34202;52.536;6.042;2023-06-04T03:54:19;11.10;;;5.00;;
48403;SDS011;34202;52.536;6.042;2023-06-04T03:59:20;9.70;;;4.60;;
48403;SDS011;34202;52.536;6.042;2023-06-04T04:04:20;10.20;;;4.90;;
48403;SDS011;34202;52.536;6.042;2023-06-04T04:09:21;12.50;;;4.70;;
48403;SDS011;34202;52.536;6.042;2023-06-04T04:14:21;8.40;;;4.00;;
48403;SDS011;34202;52.536;6.042;2023-06-04T04:19:22;9.50;;;5.10;;
48403;SDS011;34202;52.536;6.042;2023-06-04T04:24:25;12.60;;;4.60;;
48403;SDS011;34202;52.536;6.042;2023-06-04T04:29:27;9.40;;;4.70;;
48403;SDS011;34202;52.536;6.042;2023-06-04T04:34:27;10.70;;;4.70;;
48403;SDS011;34202;52.536;6.042;2023-06-04T04:39:28;11.50;;;6.30;;
48403;SDS011;34202;52.536;6.042;2023-06-04T04:44:28;9.40;;;4.60;;
48403;SDS011;34202;52.536;6.042;2023-06-04T04:49:29;12.20;;;6.10;;
48403;SDS011;34202;52.536;6.042;2023-06-04T04:54:29;11.20;;;5.10;;
48403;SDS011;34202;52.536;6.042;2023-06-04T04:59:29;10.10;;;4.50;;
48403;SDS011;34202;52.536;6.042;2023-06-04T05:04:30;11.00;;;5.20;;
48403;SDS011;34202;52.536;6.042;2023-06-04T05:09:30;10.60;;;4.50;;
48403;SDS011;34202;52.536;6.042;2023-06-04T05:14:30;9.00;;;5.50;;
48403;SDS011;34202;52.536;6.042;2023-06-04T05:19:31;10.90;;;4.80;;
48403;SDS011;34202;52.536;6.042;2023-06-04T05:24:32;13.10;;;6.00;;
48403;SDS011;34202;52.536;6.042;2023-06-04T05:29:33;22.80;;;6.60;;
48403;SDS011;34202;52.536;6.042;2023-06-04T05:34:33;15.20;;;6.20;;
48403;SDS011;34202;52.536;6.042;2023-06-04T05:39:36;14.00;;;6.10;;
48403;SDS011;34202;52.536;6.042;2023-06-04T05:44:37;17.30;;;7.20;;
48403;SDS011;34202;52.536;6.042;2023-06-04T05:49:37;10.70;;;5.80;;
48403;SDS011;34202;52.536;6.042;2023-06-04T05:54:37;11.10;;;5.80;;
48403;SDS011;34202;52.536;6.042;2023-06-04T05:59:38;14.70;;;6.60;;
48403;SDS011;34202;52.536;6.042;2023-06-04T06:04:38;14.00;;;5.20;;
48403;SDS011;34202;52.536;6.042;2023-06-04T06:09:38;14.30;;;5.40;;
48403;SDS011;34202;52.536;6.042;2023-06-04T06:14:39;10.40;;;4.60;;
48403;SDS011;34202;52.536;6.042;2023-06-04T06:19:40;7.90;;;4.60;;
48403;SDS011;34202;52.536;6.042;2023-06-04T06:24:40;10.30;;;4.60;;
48403;SDS011;34202;52.536;6.042;2023-06-04T06:29:41;11.00;;;3.90;;
48403;SDS011;34202;52.536;6.042;2023-06-04T06:34:41;10.80;;;4.60;;
48403;SDS011;34202;52.536;6.042;2023-06-04T06:39:42;11.10;;;5.10;;
48403;SDS011;34202;52.536;6.042;2023-06-04T06:44:43;8.60;;;3.70;;
48403;SDS011;34202;52.536;6.042;2023-06-04T06:49:44;14.40;;;5.10;;
48403;SDS011;34202;52.536;6.042;2023-06-04T06:54:45;8.30;;;3.90;;
48403;SDS011;34202;52.536;6.042;2023-06-04T06:59:46;9.70;;;3.80;;
48403;SDS011;34202;52.536;6.042;2023-06-04T07:04:46;11.10;;;4.70;;
48403;SDS011;34202;52.536;6.042;2023-06-04T07:09:47;12.00;;;4.10;;
48403;SDS011;34202;52.536;6.042;2023-06-04T07:14:47;14.90;;;4.20;;
48403;SDS011;34202;52.536;6.042;2023-06-04T07:19:48;10.80;;;3.20;;
48403;SDS011;34202;52.536;6.042;2023-06-04T07:24:48;9.40;;;3.10;;
48403;SDS011;34202;52.536;6.042;2023-06-04T07:29:48;6.20;;;2.80;;
48403;SDS011;34202;52.536;6.042;2023-06-04T07:34:49;7.80;;;3.00;;
48403;SDS011;34202;52.536;6.042;2023-06-04T07:39:49;12.20;;;2.90;;
48403;SDS011;34202;52.536;6.042;2023-06-04T07:44:50;11.40;;;3.00;;
48403;SDS011;34202;52.536;6.042;2023-06-04T07:49:50;6.30;;;2.60;;
48403;SDS011;34202;52.536;6.042;2023-06-04T07:54:50;9.00;;;2.10;;
48403;SDS011;34202;52.536;6.042;2023-06-04T07:59:51;7.00;;;2.60;;
48403;SDS011;34202;52.536;6.042;2023-06-04T08:04:52;5.30;;;2.10;;
48403;SDS011;34202;52.536;6.042;2023-06-04T08:09:52;5.80;;;2.30;;
48403;SDS011;34202;52.536;6.042;2023-06-04T08:14:53;5.40;;;2.10;;
48403;SDS011;34202;52.536;6.042;2023-06-04T08:19:56;6.20;;;2.10;;
48403;SDS011;34202;52.536;6.042;2023-06-04T08:24:57;4.60;;;2.10;;
48403;SDS011;34202;52.536;6.042;2023-06-04T08:29:58;7.20;;;2.50;;
48403;SDS011;34202;52.536;6.042;2023-06-04T08:34:58;3.70;;;1.50;;
48403;SDS011;34202;52.536;6.042;2023-06-04T08:39:58;4.70;;;1.60;;
48403;SDS011;34202;52.536;6.042;2023-06-04T08:44:59;5.30;;;1.60;;
48403;SDS011;34202;52.536;6.042;2023-06-04T08:49:59;6.10;;;1.90;;
48403;SDS011;34202;52.536;6.042;2023-06-04T08:55:03;4.40;;;1.80;;
48403;SDS011;34202;52.536;6.042;2023-06-04T09:00:04;3.80;;;1.50;;
48403;SDS011;34202;52.536;6.042;2023-06-04T09:05:07;5.30;;;1.30;;
48403;SDS011;34202;52.536;6.042;2023-06-04T09:10:09;3.70;;;1.60;;
48403;SDS011;34202;52.536;6.042;2023-06-04T09:15:10;2.10;;;1.10;;
48403;SDS011;34202;52.536;6.042;2023-06-04T09:20:21;3.20;;;1.30;;
48403;SDS011;34202;52.536;6.042;2023-06-04T09:25:23;1.50;;;1.10;;
48403;SDS011;34202;52.536;6.042;2023-06-04T09:30:27;7.50;;;1.40;;
48403;SDS011;34202;52.536;6.042;2023-06-04T09:35:28;4.50;;;1.40;;
48403;SDS011;34202;52.536;6.042;2023-06-04T09:40:37;3.50;;;1.30;;
48403;SDS011;34202;52.536;6.042;2023-06-04T09:45:38;3.10;;;1.40;;
48403;SDS011;34202;52.536;6.042;2023-06-04T09:50:38;2.10;;;1.10;;
48403;SDS011;34202;52.536;6.042;2023-06-04T09:55:41;3.70;;;1.50;;
48403;SDS011;34202;52.536;6.042;2023-06-04T10:00:43;5.30;;;1.70;;
48403;SDS011;34202;52.536;6.042;2023-06-04T10:05:45;6.20;;;2.10;;
48403;SDS011;34202;52.536;6.042;2023-06-04T10:10:45;4.00;;;1.70;;
48403;SDS011;34202;52.536;6.042;2023-06-04T10:15:47;4.40;;;1.80;;
48403;SDS011;34202;52.536;6.042;2023-06-04T10:20:50;4.40;;;1.40;;
48403;SDS011;34202;52.536;6.042;2023-06-04T10:30:54;3.00;;;1.30;;
48403;SDS011;34202;52.536;6.042;2023-06-04T10:35:55;6.90;;;1.20;;
48403;SDS011;34202;52.536;6.042;2023-06-04T10:40:56;6.50;;;1.50;;
48403;SDS011;34202;52.536;6.042;2023-06-04T10:45:56;4.90;;;1.10;;
48403;SDS011;34202;52.536;6.042;2023-06-04T10:50:56;2.70;;;1.60;;
48403;SDS011;34202;52.536;6.042;2023-06-04T10:55:57;4.30;;;1.60;;
48403;SDS011;34202;52.536;6.042;2023-06-04T11:00:57;6.70;;;1.90;;
48403;SDS011;34202;52.536;6.042;2023-06-04T11:05:57;3.20;;;1.60;;
48403;SDS011;34202;52.536;6.042;2023-06-04T11:10:58;1.90;;;1.10;;
48403;SDS011;34202;52.536;6.042;2023-06-04T11:15:58;5.40;;;2.00;;
48403;SDS011;34202;52.536;6.042;2023-06-04T11:20:59;4.70;;;1.40;;
48403;SDS011;34202;52.536;6.042;2023-06-04T11:26:03;3.70;;;1.20;;
48403;SDS011;34202;52.536;6.042;2023-06-04T11:31:04;2.60;;;1.20;;
48403;SDS011;34202;52.536;6.042;2023-06-04T11:36:08;4.10;;;1.20;;
48403;SDS011;34202;52.536;6.042;2023-06-04T11:41:08;3.60;;;1.30;;
48403;SDS011;34202;52.536;6.042;2023-06-04T11:46:08;5.10;;;1.20;;
48403;SDS011;34202;52.536;6.042;2023-06-04T11:51:09;3.40;;;1.40;;
48403;SDS011;34202;52.536;6.042;2023-06-04T11:56:10;3.70;;;1.20;;
48403;SDS011;34202;52.536;6.042;2023-06-04T12:01:11;3.30;;;1.30;;
48403;SDS011;34202;52.536;6.042;2023-06-04T12:08:07;1.30;;;1.00;;
48403;SDS011;34202;52.536;6.042;2023-06-04T12:13:10;5.80;;;1.30;;
48403;SDS011;34202;52.536;6.042;2023-06-04T12:18:11;5.50;;;1.50;;
48403;SDS011;34202;52.536;6.042;2023-06-04T12:23:18;2.20;;;1.10;;
48403;SDS011;34202;52.536;6.042;2023-06-04T12:28:20;4.80;;;1.30;;
48403;SDS011;34202;52.536;6.042;2023-06-04T12:33:21;2.80;;;1.30;;
48403;SDS011;34202;52.536;6.042;2023-06-04T12:38:21;3.10;;;1.20;;
48403;SDS011;34202;52.536;6.042;2023-06-04T12:43:21;6.50;;;1.60;;
48403;SDS011;34202;52.536;6.042;2023-06-04T12:48:22;5.90;;;1.50;;
48403;SDS011;34202;52.536;6.042;2023-06-04T12:53:22;8.90;;;5.20;;
48403;SDS011;34202;52.536;6.042;2023-06-04T12:58:22;6.00;;;3.10;;
48403;SDS011;34202;52.536;6.042;2023-06-04T13:03:23;4.40;;;1.40;;
48403;SDS011;34202;52.536;6.042;2023-06-04T13:08:23;6.60;;;1.80;;
48403;SDS011;34202;52.536;6.042;2023-06-04T13:13:24;4.20;;;1.30;;
48403;SDS011;34202;52.536;6.042;2023-06-04T13:18:24;5.60;;;1.60;;
48403;SDS011;34202;52.536;6.042;2023-06-04T13:23:25;5.90;;;1.80;;
48403;SDS011;34202;52.536;6.042;2023-06-04T13:28:25;4.40;;;1.60;;
48403;SDS011;34202;52.536;6.042;2023-06-04T13:33:26;4.30;;;1.20;;
48403;SDS011;34202;52.536;6.042;2023-06-04T13:38:27;4.40;;;1.30;;
48403;SDS011;34202;52.536;6.042;2023-06-04T13:43:27;5.00;;;1.30;;
48403;SDS011;34202;52.536;6.042;2023-06-04T13:48:28;2.80;;;1.40;;
48403;SDS011;34202;52.536;6.042;2023-06-04T13:53:28;2.80;;;1.60;;
48403;SDS011;34202;52.536;6.042;2023-06-04T13:58:28;3.50;;;1.40;;
48403;SDS011;34202;52.536;6.042;2023-06-04T14:03:29;4.00;;;1.30;;
48403;SDS011;34202;52.536;6.042;2023-06-04T14:08:29;2.50;;;1.20;;
48403;SDS011;34202;52.536;6.042;2023-06-04T14:13:30;1.80;;;1.30;;
48403;SDS011;34202;52.536;6.042;2023-06-04T14:18:30;2.10;;;1.10;;
48403;SDS011;34202;52.536;6.042;2023-06-04T14:23:31;2.60;;;1.30;;
48403;SDS011;34202;52.536;6.042;2023-06-04T14:28:31;3.10;;;1.10;;
48403;SDS011;34202;52.536;6.042;2023-06-04T14:33:32;3.20;;;1.70;;
48403;SDS011;34202;52.536;6.042;2023-06-04T14:38:32;2.50;;;1.40;;
48403;SDS011;34202;52.536;6.042;2023-06-04T14:43:32;4.40;;;1.50;;
48403;SDS011;34202;52.536;6.042;2023-06-04T14:48:33;2.30;;;1.30;;
48403;SDS011;34202;52.536;6.042;2023-06-04T14:53:33;2.60;;;1.30;;
48403;SDS011;34202;52.536;6.042;2023-06-04T14:58:33;3.80;;;1.00;;
48403;SDS011;34202;52.536;6.042;2023-06-04T15:03:34;3.00;;;1.10;;
48403;SDS011;34202;52.536;6.042;2023-06-04T15:08:34;1.70;;;1.00;;
48403;SDS011;34202;52.536;6.042;2023-06-04T15:13:35;2.00;;;1.00;;
48403;SDS011;34202;52.536;6.042;2023-06-04T15:18:35;3.30;;;1.20;;
48403;SDS011;34202;52.536;6.042;2023-06-04T15:23:35;3.70;;;1.50;;
48403;SDS011;34202;52.536;6.042;2023-06-04T15:28:36;2.40;;;1.50;;
48403;SDS011;34202;52.536;6.042;2023-06-04T15:33:37;4.30;;;1.50;;
48403;SDS011;34202;52.536;6.042;2023-06-04T15:38:37;2.20;;;1.60;;
48403;SDS011;34202;52.536;6.042;2023-06-04T15:43:38;1.90;;;1.10;;
48403;SDS011;34202;52.536;6.042;2023-06-04T15:48:38;1.90;;;1.30;;
48403;SDS011;34202;52.536;6.042;2023-06-04T15:53:38;3.80;;;1.60;;
48403;SDS011;34202;52.536;6.042;2023-06-04T15:58:39;4.30;;;1.70;;
48403;SDS011;34202;52.536;6.042;2023-06-04T16:03:39;5.30;;;1.50;;
48403;SDS011;34202;52.536;6.042;2023-06-04T16:08:40;3.60;;;2.20;;
48403;SDS011;34202;52.536;6.042;2023-06-04T16:13:43;2.30;;;1.50;;
48403;SDS011;34202;52.536;6.042;2023-06-04T16:18:46;3.60;;;1.50;;
48403;SDS011;34202;52.536;6.042;2023-06-04T16:23:48;4.00;;;2.20;;
48403;SDS011;34202;52.536;6.042;2023-06-04T16:28:49;5.50;;;3.00;;
48403;SDS011;34202;52.536;6.042;2023-06-04T16:33:49;3.50;;;1.80;;
48403;SDS011;34202;52.536;6.042;2023-06-04T16:38:50;5.00;;;1.80;;
48403;SDS011;34202;52.536;6.042;2023-06-04T16:43:51;4.70;;;1.70;;
48403;SDS011;34202;52.536;6.042;2023-06-04T16:48:52;3.30;;;1.70;;
48403;SDS011;34202;52.536;6.042;2023-06-04T16:53:52;3.40;;;1.70;;
48403;SDS011;34202;52.536;6.042;2023-06-04T16:58:53;3.90;;;1.70;;
48403;SDS011;34202;52.536;6.042;2023-06-04T17:03:54;14.70;;;2.00;;
48403;SDS011;34202;52.536;6.042;2023-06-04T17:08:54;2.80;;;1.20;;
48403;SDS011;34202;52.536;6.042;2023-06-04T17:13:55;8.90;;;1.80;;
48403;SDS011;34202;52.536;6.042;2023-06-04T17:18:55;4.20;;;1.80;;
48403;SDS011;34202;52.536;6.042;2023-06-04T17:23:55;3.10;;;1.50;;
48403;SDS011;34202;52.536;6.042;2023-06-04T17:28:59;6.40;;;1.60;;
48403;SDS011;34202;52.536;6.042;2023-06-04T17:33:59;3.10;;;1.40;;
48403;SDS011;34202;52.536;6.042;2023-06-04T17:39:00;10.00;;;1.60;;
48403;SDS011;34202;52.536;6.042;2023-06-04T17:44:00;5.70;;;1.40;;
48403;SDS011;34202;52.536;6.042;2023-06-04T17:49:01;3.80;;;1.40;;
48403;SDS011;34202;52.536;6.042;2023-06-04T17:54:03;2.10;;;1.40;;
48403;SDS011;34202;52.536;6.042;2023-06-04T17:59:04;6.00;;;1.70;;
48403;SDS011;34202;52.536;6.042;2023-06-04T18:04:05;4.60;;;2.00;;
48403;SDS011;34202;52.536;6.042;2023-06-04T18:09:06;5.00;;;1.70;;
48403;SDS011;34202;52.536;6.042;2023-06-04T18:14:06;3.10;;;1.40;;
48403;SDS011;34202;52.536;6.042;2023-06-04T18:19:06;8.00;;;2.20;;
48403;SDS011;34202;52.536;6.042;2023-06-04T18:24:09;7.20;;;2.00;;
48403;SDS011;34202;52.536;6.042;2023-06-04T18:29:09;4.60;;;2.00;;
48403;SDS011;34202;52.536;6.042;2023-06-04T18:34:10;4.30;;;1.40;;
48403;SDS011;34202;52.536;6.042;2023-06-04T18:39:23;3.40;;;1.70;;
48403;SDS011;34202;52.536;6.042;2023-06-04T18:44:25;5.50;;;1.50;;
48403;SDS011;34202;52.536;6.042;2023-06-04T18:49:25;6.80;;;2.00;;
48403;SDS011;34202;52.536;6.042;2023-06-04T18:54:26;3.80;;;1.60;;
48403;SDS011;34202;52.536;6.042;2023-06-04T18:59:27;2.20;;;1.40;;
48403;SDS011;34202;52.536;6.042;2023-06-04T19:04:27;3.10;;;1.40;;
48403;SDS011;34202;52.536;6.042;2023-06-04T19:09:27;5.60;;;1.70;;
48403;SDS011;34202;52.536;6.042;2023-06-04T19:14:28;4.60;;;2.00;;
48403;SDS011;34202;52.536;6.042;2023-06-04T19:19:28;5.40;;;2.40;;
48403;SDS011;34202;52.536;6.042;2023-06-04T19:24:28;3.30;;;1.60;;
48403;SDS011;34202;52.536;6.042;2023-06-04T19:29:29;2.90;;;1.80;;
48403;SDS011;34202;52.536;6.042;2023-06-04T19:34:29;5.20;;;2.50;;
48403;SDS011;34202;52.536;6.042;2023-06-04T19:39:30;5.40;;;1.70;;
48403;SDS011;34202;52.536;6.042;2023-06-04T19:44:30;4.10;;;2.60;;
48403;SDS011;34202;52.536;6.042;2023-06-04T19:49:31;8.50;;;2.10;;
48403;SDS011;34202;52.536;6.042;2023-06-04T19:54:31;5.90;;;2.50;;
48403;SDS011;34202;52.536;6.042;2023-06-04T19:59:32;3.90;;;2.00;;
48403;SDS011;34202;52.536;6.042;2023-06-04T20:04:32;4.60;;;2.40;;
48403;SDS011;34202;52.536;6.042;2023-06-04T20:09:35;5.90;;;2.30;;
48403;SDS011;34202;52.536;6.042;2023-06-04T20:14:35;9.30;;;2.70;;
48403;SDS011;34202;52.536;6.042;2023-06-04T20:19:35;5.50;;;2.60;;
48403;SDS011;34202;52.536;6.042;2023-06-04T20:24:37;3.70;;;2.20;;
48403;SDS011;34202;52.536;6.042;2023-06-04T20:29:38;9.20;;;3.30;;
48403;SDS011;34202;52.536;6.042;2023-06-04T20:34:40;4.60;;;2.50;;
48403;SDS011;34202;52.536;6.042;2023-06-04T20:39:40;6.10;;;2.50;;
48403;SDS011;34202;52.536;6.042;2023-06-04T20:44:42;4.00;;;2.40;;
48403;SDS011;34202;52.536;6.042;2023-06-04T20:49:42;4.80;;;2.80;;
48403;SDS011;34202;52.536;6.042;2023-06-04T20:54:43;5.50;;;3.00;;
48403;SDS011;34202;52.536;6.042;2023-06-04T20:59:43;5.20;;;2.50;;
48403;SDS011;34202;52.536;6.042;2023-06-04T21:04:43;9.00;;;3.30;;
48403;SDS011;34202;52.536;6.042;2023-06-04T21:09:44;5.10;;;3.60;;
48403;SDS011;34202;52.536;6.042;2023-06-04T21:14:44;7.50;;;3.30;;
48403;SDS011;34202;52.536;6.042;2023-06-04T21:19:45;7.10;;;3.40;;
48403;SDS011;34202;52.536;6.042;2023-06-04T21:24:45;5.70;;;3.70;;
48403;SDS011;34202;52.536;6.042;2023-06-04T21:29:46;5.90;;;3.70;;
48403;SDS011;34202;52.536;6.042;2023-06-04T21:34:46;5.00;;;3.40;;
48403;SDS011;34202;52.536;6.042;2023-06-04T21:39:48;6.70;;;3.90;;
48403;SDS011;34202;52.536;6.042;2023-06-04T21:44:48;7.60;;;3.60;;
48403;SDS011;34202;52.536;6.042;2023-06-04T21:49:48;7.60;;;4.40;;
48403;SDS011;34202;52.536;6.042;2023-06-04T21:54:49;6.90;;;4.00;;
48403;SDS011;34202;52.536;6.042;2023-06-04T21:59:50;7.40;;;4.40;;
48403;SDS011;34202;52.536;6.042;2023-06-04T22:04:50;7.60;;;3.90;;
48403;SDS011;34202;52.536;6.042;2023-06-04T22:09:51;7.10;;;4.00;;
48403;SDS011;34202;52.536;6.042;2023-06-04T22:14:51;4.20;;;3.50;;
48403;SDS011;34202;52.536;6.042;2023-06-04T22:19:52;6.50;;;4.10;;
48403;SDS011;34202;52.536;6.042;2023-06-04T22:24:52;9.90;;;4.40;;
48403;SDS011;34202;52.536;6.042;2023-06-04T22:29:52;6.30;;;4.60;;
48403;SDS011;34202;52.536;6.042;2023-06-04T22:34:53;7.30;;;3.90;;
48403;SDS011;34202;52.536;6.042;2023-06-04T22:39:53;7.70;;;4.60;;
48403;SDS011;34202;52.536;6.042;2023-06-04T22:44:54;11.40;;;6.50;;
48403;SDS011;34202;52.536;6.042;2023-06-04T22:49:54;6.30;;;4.20;;
48403;SDS011;34202;52.536;6.042;2023-06-04T22:54:54;8.00;;;4.60;;
48403;SDS011;34202;52.536;6.042;2023-06-04T22:59:55;4.20;;;3.60;;
48403;SDS011;34202;52.536;6.042;2023-06-04T23:04:55;7.00;;;4.90;;
48403;SDS011;34202;52.536;6.042;2023-06-04T23:09:55;7.20;;;4.60;;
48403;SDS011;34202;52.536;6.042;2023-06-04T23:14:56;6.50;;;5.00;;
48403;SDS011;34202;52.536;6.042;2023-06-04T23:19:56;11.40;;;5.00;;
48403;SDS011;34202;52.536;6.042;2023-06-04T23:24:57;6.40;;;4.80;;
48403;SDS011;34202;52.536;6.042;2023-06-04T23:29:57;5.80;;;4.50;;
48403;SDS011;34202;52.536;6.042;2023-06-04T23:34:57;6.70;;;5.30;;
48403;SDS011;34202;52.536;6.042;2023-06-04T23:39:58;6.40;;;4.90;;
48403;SDS011;34202;52.536;6.042;2023-06-04T23:44:58;5.60;;;4.90;;
48403;SDS011;34202;52.536;6.042;2023-06-04T23:50:00;10.00;;;6.00;;
48403;SDS011;34202;52.536;6.042;2023-06-04T23:55:00;7.10;;;4.60;;
